Time;durP1;ratioP1;P1;durP2;ratioP2;P2;SDS_P1;SDS_P2;PMS_P1;PMS_P2;Temp;Humidity;BMP_temperature;BMP_pressure;BME280_temperature;BME280_humidity;BME280_pressure;Samples;Min_cycle;Max_cycle;Signal;HPM_P1;HPM_P2
2023/01/26 00:01:31;;;;;;;32.35;5.43;;;4.70;99.90;;;;;;4999033;28;20369;-76
2023/01/26 00:03:59;;;;;;;31.83;5.28;;;4.70;99.90;;;;;;4999315;28;20366;-77
2023/01/26 00:06:26;;;;;;;30.95;5.10;;;4.60;99.90;;;;;;5015198;28;20046;-76
2023/01/26 00:08:58;;;;;;;29.85;5.15;;;4.50;99.90;;;;;;5016221;28;20046;-75
2023/01/26 00:11:28;;;;;;;29.23;4.40;;;4.30;99.90;;;;;;4998267;28;20050;-78
2023/01/26 00:13:57;;;;;;;30.50;4.93;;;4.50;99.90;;;;;;4999102;28;20053;-75
2023/01/26 00:16:26;;;;;;;25.85;4.72;;;6.40;99.90;;;;;;4998766;28;20049;-77
2023/01/26 00:18:53;;;;;;;37.10;4.78;;;4.40;99.90;;;;;;5014982;28;20492;-77
2023/01/26 00:21:23;;;;;;;33.00;4.45;;;4.40;99.90;;;;;;4998823;28;20042;-77
2023/01/26 00:23:51;;;;;;;30.65;4.20;;;4.60;99.90;;;;;;4999307;28;20053;-78
2023/01/26 00:26:22;;;;;;;30.58;4.03;;;4.40;99.90;;;;;;4997511;28;20046;-78
2023/01/26 00:28:50;;;;;;;31.65;4.18;;;4.40;99.90;;;;;;5015898;28;20066;-76
2023/01/26 00:31:24;;;;;;;30.27;4.15;;;4.90;99.90;;;;;;5014548;28;20045;-76
2023/01/26 00:33:54;;;;;;;29.10;4.28;;;4.40;99.90;;;;;;5015559;28;20050;-76
2023/01/26 00:36:21;;;;;;;24.20;4.45;;;4.50;99.90;;;;;;5015556;28;20042;-75
2023/01/26 00:38:49;;;;;;;27.55;3.20;;;4.30;99.90;;;;;;5014916;28;20046;-76
2023/01/26 00:44:03;;;;;;;40.75;3.92;;;4.30;99.90;;;;;;4981977;28;20046;-75
2023/01/26 00:46:30;;;;;;;30.00;3.90;;;4.30;99.90;;;;;;4997220;28;20045;-77
2023/01/26 00:48:59;;;;;;;35.25;4.05;;;4.30;99.90;;;;;;4998364;28;20056;-76
2023/01/26 00:51:27;;;;;;;26.48;3.72;;;4.20;99.90;;;;;;4996606;28;20050;-77
2023/01/26 00:53:56;;;;;;;33.65;4.47;;;4.20;99.90;;;;;;4998087;28;20057;-75
2023/01/26 00:56:26;;;;;;;28.02;4.40;;;4.80;99.90;;;;;;4998247;28;20056;-78
2023/01/26 00:58:54;;;;;;;26.15;4.32;;;4.20;99.90;;;;;;5014057;28;20076;-75
2023/01/26 01:01:21;;;;;;;25.67;4.28;;;4.40;99.90;;;;;;5014939;28;20053;-77
2023/01/26 01:03:50;;;;;;;41.63;4.25;;;4.20;99.90;;;;;;4998420;28;20048;-77
2023/01/26 01:06:18;;;;;;;30.30;4.15;;;4.10;99.90;;;;;;4996889;28;20042;-78
2023/01/26 01:08:46;;;;;;;26.17;3.90;;;4.10;99.90;;;;;;4998273;28;20046;-75
2023/01/26 01:11:13;;;;;;;28.15;5.00;;;4.00;99.90;;;;;;4996609;28;20206;-78
2023/01/26 01:13:41;;;;;;;36.10;4.80;;;4.00;99.90;;;;;;5015918;28;20046;-76
2023/01/26 01:16:11;;;;;;;31.77;4.60;;;4.00;99.90;;;;;;4997662;28;20053;-78
2023/01/26 01:18:39;;;;;;;40.95;5.00;;;4.00;99.90;;;;;;5014026;28;20057;-78
2023/01/26 01:21:11;;;;;;;29.60;5.40;;;4.70;99.90;;;;;;4997923;28;20053;-76
2023/01/26 01:23:39;;;;;;;39.50;5.18;;;3.80;99.90;;;;;;4997748;28;20050;-75
2023/01/26 01:26:07;;;;;;;35.45;5.07;;;3.80;99.90;;;;;;5013820;28;20057;-78
2023/01/26 01:28:36;;;;;;;36.13;4.80;;;3.80;99.90;;;;;;5014963;28;20038;-75
2023/01/26 01:31:04;;;;;;;;;;;4.00;99.90;;;;;;5014331;28;20042;-76
2023/01/26 01:33:32;;;;;;;34.05;5.53;;;3.80;99.90;;;;;;4997810;28;19921;-77
2023/01/26 01:36:02;;;;;;;34.42;5.63;;;3.80;99.90;;;;;;4997832;28;20045;-75
2023/01/26 01:38:30;;;;;;;40.08;6.20;;;3.80;99.90;;;;;;4996929;28;20373;-77
2023/01/26 01:40:58;;;;;;;35.30;5.88;;;3.70;99.90;;;;;;5014774;28;20369;-75
2023/01/26 01:43:26;;;;;;;38.08;7.18;;;3.70;99.90;;;;;;4997514;28;20057;-75
2023/01/26 01:45:54;;;;;;;48.75;7.80;;;4.30;99.90;;;;;;5013697;28;20050;-76
2023/01/26 01:48:42;;;;;;;;;;;3.60;99.90;;;;;;4997872;28;20038;-75
2023/01/26 01:51:36;;;;;;;23.02;6.97;;;3.70;99.90;;;;;;5013583;28;19921;-77
2023/01/26 01:54:12;;;;;;;46.53;8.52;;;3.80;99.90;;;;;;5006675;28;20065;-75
2023/01/26 01:56:47;;;;;;;50.20;9.07;;;3.70;99.90;;;;;;4997766;28;20092;-75
2023/01/26 01:59:19;;;;;;;44.85;9.07;;;3.70;99.90;;;;;;4980087;28;20054;-76
2023/01/26 02:01:50;;;;;;;40.50;8.88;;;4.50;99.90;;;;;;5002600;28;20053;-78
2023/01/26 02:04:20;;;;;;;38.25;8.23;;;3.60;99.90;;;;;;5037266;28;20049;-79
2023/01/26 02:06:50;;;;;;;39.38;8.98;;;3.70;99.90;;;;;;5038158;28;20042;-75
2023/01/26 02:12:13;;;;;;;34.28;8.55;;;3.70;99.90;;;;;;5036488;28;20056;-76
2023/01/26 02:14:41;;;;;;;39.33;8.95;;;4.00;99.90;;;;;;5037676;28;20478;-76
2023/01/26 02:17:09;;;;;;;32.50;8.05;;;3.80;99.90;;;;;;5037936;28;20049;-77
2023/01/26 02:19:56;;;;;;;42.80;10.05;;;3.80;99.90;;;;;;5036129;28;20041;-77
2023/01/26 02:22:32;;;;;;;;;;;3.80;99.90;;;;;;5038169;28;20044;-74
2023/01/26 02:25:06;;;;;;;38.40;9.50;;;3.80;99.90;;;;;;5036087;28;20374;-74
2023/01/26 02:27:34;;;;;;;34.20;9.93;;;4.00;99.90;;;;;;5037278;28;20042;-76
2023/01/26 02:30:03;;;;;;;45.47;9.80;;;4.10;99.90;;;;;;5036861;28;20041;-76
2023/01/26 02:32:32;;;;;;;42.47;10.10;;;3.80;99.90;;;;;;5035913;28;20048;-75
2023/01/26 02:34:59;;;;;;;42.58;11.35;;;3.80;99.90;;;;;;5037877;28;20046;-76
2023/01/26 02:37:27;;;;;;;49.92;11.07;;;3.80;99.90;;;;;;5036761;28;20060;-77
2023/01/26 02:40:00;;;;;;;44.05;11.18;;;3.80;99.90;;;;;;5019259;28;20053;-78
2023/01/26 02:42:37;;;;;;;40.70;11.38;;;4.20;99.90;;;;;;5036658;28;20046;-75
2023/01/26 02:45:05;;;;;;;39.30;10.20;;;3.80;99.90;;;;;;5035670;28;20045;-77
2023/01/26 02:47:33;;;;;;;46.22;11.32;;;3.80;99.90;;;;;;5037122;28;20037;-75
2023/01/26 02:50:04;;;;;;;45.28;11.40;;;3.80;99.90;;;;;;5037203;28;20052;-77
2023/01/26 02:52:32;;;;;;;54.67;12.30;;;3.80;99.90;;;;;;5018863;28;20053;-74
2023/01/26 02:55:29;;;;;;;37.58;11.40;;;3.80;99.90;;;;;;5036633;28;20457;-75
2023/01/26 02:58:03;;;;;;;39.67;12.07;;;3.70;99.90;;;;;;5035729;28;20372;-75
2023/01/26 03:00:40;;;;;;;41.95;11.32;;;3.60;99.90;;;;;;5036596;28;20046;-75
2023/01/26 03:03:25;;;;;;;55.42;11.85;;;3.70;99.90;;;;;;5036129;28;20057;-76
2023/01/26 03:05:53;;;;;;;39.75;11.82;;;3.40;99.90;;;;;;5035079;28;20050;-76
2023/01/26 03:08:20;;;;;;;47.53;12.35;;;3.40;99.90;;;;;;5036272;28;20042;-75
2023/01/26 03:10:48;;;;;;;49.88;11.05;;;3.20;99.90;;;;;;5036241;28;20048;-76
2023/01/26 03:13:17;;;;;;;53.28;12.23;;;3.20;99.90;;;;;;5018972;28;20117;-77
2023/01/26 03:15:51;;;;;;;54.08;12.43;;;3.50;99.90;;;;;;5036309;28;20049;-75
2023/01/26 03:29:35;;;;;;;46.75;12.23;;;2.90;99.90;;;;;;5036592;28;20061;-77
2023/01/26 03:32:03;;;;;;;45.85;12.18;;;2.80;99.90;;;;;;5035016;28;20046;-76
2023/01/26 03:34:31;;;;;;;50.38;13.25;;;2.70;99.90;;;;;;5035759;28;20046;-75
2023/01/26 03:36:59;;;;;;;51.25;13.23;;;2.70;99.90;;;;;;5035918;28;20045;-77
2023/01/26 03:56:23;;;;;;;49.17;12.45;;;2.40;99.90;;;;;;5036059;28;20056;-78
2023/01/26 03:59:11;;;;;;;51.53;13.10;;;2.40;99.90;;;;;;5018590;28;20346;-74
2023/01/26 04:10:07;;;;;;;48.92;13.57;;;2.30;99.90;;;;;;5035176;28;20045;-75
2023/01/26 04:12:35;;;;;;;45.05;13.25;;;2.30;99.90;;;;;;5033768;28;20050;-74
2023/01/26 04:23:40;;;;;;;51.03;12.18;;;2.20;99.90;;;;;;5018663;28;20056;-76
2023/01/26 04:26:08;;;;;;;55.40;12.20;;;2.20;99.90;;;;;;5017108;28;20049;-75
2023/01/26 04:28:37;;;;;;;46.78;12.10;;;2.20;99.90;;;;;;5035009;28;20122;-76
2023/01/26 04:31:05;;;;;;;44.67;12.40;;;2.20;99.90;;;;;;5033747;28;20048;-76
2023/01/26 04:33:35;;;;;;;48.28;10.07;;;2.50;99.90;;;;;;5034487;28;20053;-78
2023/01/26 04:36:06;;;;;;;39.70;10.68;;;2.10;99.90;;;;;;5034532;28;20045;-74
2023/01/26 04:38:36;;;;;;;56.38;12.02;;;2.10;99.90;;;;;;5033718;28;20052;-75
2023/01/26 04:41:04;;;;;;;49.78;11.40;;;2.10;99.90;;;;;;5018253;28;20052;-77
2023/01/26 04:43:38;;;;;;;42.63;11.13;;;3.50;99.90;;;;;;5034421;28;20049;-76
2023/01/26 04:46:07;;;;;;;50.63;10.68;;;2.10;99.90;;;;;;5033275;28;20456;-76
2023/01/26 04:48:37;;;;;;;42.53;10.23;;;2.10;99.90;;;;;;5018329;28;20046;-75
2023/01/26 04:51:10;;;;;;;58.20;11.45;;;2.80;99.90;;;;;;5017029;28;20064;-76
2023/01/26 04:53:38;;;;;;;43.53;10.05;;;2.20;99.90;;;;;;5034378;28;20042;-74
2023/01/26 04:56:08;;;;;;;48.40;10.85;;;4.50;99.90;;;;;;5035006;28;20056;-75
2023/01/26 04:58:36;;;;;;;45.38;10.07;;;2.10;99.90;;;;;;5033065;28;20050;-76
2023/01/26 05:01:03;;;;;;;33.83;9.55;;;3.00;99.90;;;;;;5034066;28;20046;-77
2023/01/26 05:03:31;;;;;;;49.20;10.23;;;2.90;99.90;;;;;;5033874;28;20058;-77
2023/01/26 05:05:59;;;;;;;51.08;9.32;;;2.60;99.90;;;;;;5034063;28;20369;-77
2023/01/26 05:08:26;;;;;;;48.40;9.93;;;2.10;99.90;;;;;;5017530;28;20053;-76
2023/01/26 05:10:54;;;;;;;52.95;10.02;;;2.10;99.90;;;;;;5033142;28;20056;-75
2023/01/26 05:13:25;;;;;;;40.40;8.80;;;2.10;99.90;;;;;;5033989;28;20056;-77
2023/01/26 05:16:05;;;;;;;44.65;8.60;;;2.30;99.90;;;;;;5033999;28;20364;-77
2023/01/26 05:18:52;;;;;;;47.67;8.55;;;2.10;99.90;;;;;;5019371;28;20041;-76
2023/01/26 05:21:39;;;;;;;53.37;9.17;;;2.10;99.90;;;;;;5033952;28;20057;-77
2023/01/26 05:24:07;;;;;;;50.38;9.73;;;2.10;99.90;;;;;;5017760;28;20056;-77
2023/01/26 05:27:22;;;;;;;46.70;8.20;;;2.10;99.90;;;;;;5015458;28;20473;-74
2023/01/26 05:29:59;;;;;;;59.28;8.80;;;2.10;99.90;;;;;;5033937;28;20050;-76
2023/01/26 05:32:30;;;;;;;41.60;7.95;;;2.10;99.90;;;;;;5016388;28;20060;-74
2023/01/26 05:34:58;;;;;;;43.95;8.73;;;2.30;99.90;;;;;;5034803;28;20368;-77
2023/01/26 05:37:27;;;;;;;51.15;8.68;;;2.20;99.90;;;;;;5035327;28;20053;-73
2023/01/26 05:39:58;;;;;;;57.00;7.93;;;2.30;99.90;;;;;;5038203;28;20384;-77
2023/01/26 05:42:26;;;;;;;52.50;8.45;;;2.40;99.90;;;;;;5038689;28;20050;-76
2023/01/26 05:44:59;;;;;;;59.03;8.32;;;2.50;99.90;;;;;;5036883;28;20045;-76
2023/01/26 05:47:28;;;;;;;58.03;7.63;;;2.60;99.90;;;;;;5038097;28;20465;-75
2023/01/26 05:49:57;;;;;;;51.17;8.30;;;2.70;99.90;;;;;;5037751;28;20046;-78
2023/01/26 05:52:28;;;;;;;61.20;8.60;;;3.30;99.90;;;;;;5036539;28;20057;-76
2023/01/26 05:54:55;;;;;;;47.35;8.60;;;2.90;99.90;;;;;;5037828;28;20052;-78
2023/01/26 05:57:24;;;;;;;47.13;8.02;;;3.00;99.90;;;;;;5037879;28;20056;-76
2023/01/26 05:59:59;;;;;;;43.95;7.38;;;3.10;99.90;;;;;;5020963;28;20064;-77
2023/01/26 06:02:26;;;;;;;38.10;7.10;;;3.20;99.90;;;;;;5037252;28;20061;-75
2023/01/26 06:04:54;;;;;;;46.55;6.47;;;3.30;99.90;;;;;;5036393;28;20068;-75
2023/01/26 06:07:22;;;;;;;49.00;6.93;;;3.30;99.90;;;;;;5037492;28;20053;-78
2023/01/26 06:10:05;;;;;;;43.95;6.68;;;3.40;99.90;;;;;;5037353;28;20368;-76
2023/01/26 06:12:51;;;;;;;42.25;6.25;;;3.40;99.90;;;;;;5037218;28;20056;-76
2023/01/26 06:15:38;;;;;;;41.83;7.60;;;3.40;99.90;;;;;;5036949;28;20057;-74
2023/01/26 06:18:07;;;;;;;45.10;7.30;;;6.00;99.90;;;;;;5036481;28;20056;-76
2023/01/26 06:20:36;;;;;;;44.20;6.90;;;3.50;99.90;;;;;;5037025;28;20052;-75
2023/01/26 06:23:10;;;;;;;41.60;6.40;;;3.80;99.90;;;;;;5037095;28;20041;-77
2023/01/26 06:25:38;;;;;;;39.67;5.70;;;3.50;99.90;;;;;;5035987;28;20053;-76
2023/01/26 06:28:07;;;;;;;40.10;6.53;;;4.40;99.90;;;;;;5037035;28;20057;-77
2023/01/26 06:30:35;;;;;;;55.35;7.00;;;3.60;99.90;;;;;;5036723;28;20357;-78
2023/01/26 06:33:06;;;;;;;47.58;7.05;;;3.60;99.90;;;;;;5035986;28;20050;-77
2023/01/26 06:35:36;;;;;;;40.20;6.80;;;3.60;99.90;;;;;;5036970;28;20046;-77
2023/01/26 06:38:09;;;;;;;54.78;8.10;;;4.70;99.90;;;;;;5035896;28;20045;-74
2023/01/26 06:40:36;;;;;;;35.67;7.45;;;3.70;99.90;;;;;;5036603;28;20052;-74
2023/01/26 06:43:05;;;;;;;50.30;7.75;;;4.00;99.90;;;;;;5037073;28;20050;-77
2023/01/26 06:45:36;;;;;;;41.88;7.78;;;3.70;99.90;;;;;;5035883;28;20037;-76
2023/01/26 06:48:04;;;;;;;60.70;8.25;;;4.00;99.90;;;;;;5037569;28;20045;-78
2023/01/26 06:50:34;;;;;;;50.00;7.32;;;3.80;99.90;;;;;;5035372;28;20057;-75
2023/01/26 06:53:25;;;;;;;45.65;6.88;;;3.80;99.90;;;;;;5036180;28;20037;-75
2023/01/26 06:56:11;;;;;;;57.00;8.00;;;3.90;99.90;;;;;;5037586;28;20045;-78
2023/01/26 06:58:54;;;;;;;44.45;7.63;;;4.20;99.90;;;;;;5021088;28;20041;-76
2023/01/26 07:01:43;;;;;;;42.53;7.40;;;3.90;99.90;;;;;;5036109;28;20056;-77
2023/01/26 07:04:10;;;;;;;38.72;7.30;;;3.90;99.90;;;;;;5036734;28;20050;-77
2023/01/26 07:06:38;;;;;;;47.90;7.53;;;4.00;99.90;;;;;;5036617;28;20050;-77
2023/01/26 07:09:05;;;;;;;48.20;7.22;;;4.00;99.90;;;;;;5037425;28;20044;-78
2023/01/26 07:11:33;;;;;;;49.80;7.53;;;4.00;99.90;;;;;;5035969;28;20045;-77
2023/01/26 07:14:00;;;;;;;49.42;7.78;;;4.50;99.90;;;;;;5036855;28;20037;-78
2023/01/26 07:16:29;;;;;;;34.22;6.65;;;3.80;99.90;;;;;;5036837;28;20072;-76
2023/01/26 07:19:00;;;;;;;41.80;6.50;;;4.00;99.90;;;;;;5035975;28;20052;-78
2023/01/26 07:21:27;;;;;;;46.55;6.90;;;4.00;99.90;;;;;;5036858;28;20053;-76
2023/01/26 07:23:55;;;;;;;42.97;7.30;;;4.30;99.90;;;;;;5035646;28;20057;-76
2023/01/26 07:26:23;;;;;;;42.75;7.47;;;4.20;99.90;;;;;;5034742;28;20042;-76
2023/01/26 07:28:50;;;;;;;36.03;6.82;;;4.00;99.90;;;;;;5036961;28;20041;-76
2023/01/26 07:31:18;;;;;;;39.55;7.35;;;4.30;99.90;;;;;;5035433;28;20060;-75
2023/01/26 07:33:45;;;;;;;36.78;7.10;;;4.60;99.90;;;;;;5036078;28;20372;-77
2023/01/26 07:36:13;;;;;;;36.42;6.78;;;4.10;99.90;;;;;;5035881;28;20052;-77
2023/01/26 07:38:41;;;;;;;35.35;7.32;;;4.90;99.90;;;;;;5035530;28;20484;-76
2023/01/26 07:41:10;;;;;;;32.75;7.10;;;4.10;99.90;;;;;;5019755;28;20049;-76
2023/01/26 07:43:39;;;;;;;43.33;6.97;;;4.10;99.90;;;;;;5035445;28;20053;-77
2023/01/26 07:46:09;;;;;;;30.15;7.10;;;5.00;99.90;;;;;;5018525;28;20041;-75
2023/01/26 07:48:37;;;;;;;;;;;4.10;99.90;;;;;;5035834;28;20476;-76
2023/01/26 07:51:08;;;;;;;;;;;4.10;99.90;;;;;;5034660;28;19921;-77
2023/01/26 07:53:38;;;;;;;35.90;7.40;;;4.10;99.90;;;;;;5036102;28;19920;-78
2023/01/26 07:56:14;;;;;;;41.15;8.10;;;4.20;99.90;;;;;;5036511;28;20072;-75
2023/01/26 07:58:42;;;;;;;40.92;7.85;;;4.10;99.90;;;;;;5035246;28;20045;-77
2023/01/26 08:01:13;;;;;;;33.28;7.43;;;4.10;99.90;;;;;;5034491;28;20064;-76
2023/01/26 08:03:44;;;;;;;39.67;7.95;;;4.10;99.90;;;;;;5035348;28;20038;-74
2023/01/26 08:06:12;;;;;;;44.60;8.23;;;4.20;99.90;;;;;;5034948;28;20045;-76
2023/01/26 08:08:42;;;;;;;42.55;8.32;;;4.10;99.90;;;;;;5035341;28;20372;-76
2023/01/26 08:11:10;;;;;;;35.45;7.90;;;4.10;99.90;;;;;;5034890;28;20052;-77
2023/01/26 08:13:38;;;;;;;40.92;8.07;;;4.10;99.90;;;;;;5035727;28;20044;-74
2023/01/26 08:16:11;;;;;;;40.10;7.93;;;4.80;99.90;;;;;;5034738;28;20057;-77
2023/01/26 08:18:41;;;;;;;36.45;7.70;;;4.20;99.90;;;;;;5035076;28;20054;-77
2023/01/26 08:21:10;;;;;;;32.85;6.38;;;4.20;99.90;;;;;;5035823;28;20049;-77
2023/01/26 08:23:40;;;;;;;35.03;7.43;;;4.30;99.90;;;;;;5035016;28;20060;-76
2023/01/26 08:26:10;;;;;;;28.58;6.55;;;4.40;99.90;;;;;;5034625;28;20057;-77
2023/01/26 08:28:38;;;;;;;32.30;6.78;;;4.30;99.90;;;;;;5035610;28;20052;-76
2023/01/26 08:31:11;;;;;;;29.63;6.53;;;4.30;99.90;;;;;;5034296;28;20052;-76
2023/01/26 08:33:41;;;;;;;31.27;6.35;;;4.60;99.90;;;;;;5035016;28;20376;-75
2023/01/26 08:36:14;;;;;;;28.63;6.22;;;4.40;99.90;;;;;;5034524;28;20401;-76
2023/01/26 08:38:42;;;;;;;34.95;7.72;;;4.40;99.90;;;;;;5034406;28;20045;-76
2023/01/26 08:41:11;;;;;;;40.70;7.60;;;5.40;99.90;;;;;;5035465;28;20060;-78
2023/01/26 08:43:39;;;;;;;34.38;7.20;;;4.40;99.90;;;;;;5035175;28;20049;-76
2023/01/26 08:46:07;;;;;;;30.23;7.78;;;4.50;99.90;;;;;;5033215;28;20053;-77
2023/01/26 08:48:36;;;;;;;30.48;8.07;;;4.50;99.90;;;;;;5034968;28;20046;-74
2023/01/26 08:51:05;;;;;;;34.13;8.00;;;4.60;99.90;;;;;;5033942;28;20056;-78
2023/01/26 08:53:35;;;;;;;27.35;7.78;;;4.60;99.90;;;;;;5034977;28;20041;-76
2023/01/26 08:56:07;;;;;;;35.30;8.75;;;6.10;99.90;;;;;;5034347;28;20049;-75
2023/01/26 08:58:35;;;;;;;44.70;9.18;;;4.60;99.90;;;;;;5034275;28;20056;-75
2023/01/26 09:01:09;;;;;;;38.70;9.63;;;4.70;99.90;;;;;;5034898;28;20060;-75
2023/01/26 09:03:38;;;;;;;35.63;10.40;;;4.70;99.90;;;;;;5015467;28;20046;-77
2023/01/26 09:06:07;;;;;;;34.95;10.52;;;4.70;99.90;;;;;;5014043;28;20065;-75
2023/01/26 09:08:35;;;;;;;42.22;11.63;;;4.90;99.90;;;;;;5015008;28;20049;-77
2023/01/26 09:11:05;;;;;;;42.90;10.77;;;4.80;99.90;;;;;;5014017;28;20044;-77
2023/01/26 09:13:33;;;;;;;37.05;10.60;;;6.60;99.90;;;;;;5014883;28;20053;-78
2023/01/26 09:16:06;;;;;;;37.83;11.13;;;4.90;99.90;;;;;;5015012;28;20054;-77
2023/01/26 09:18:33;;;;;;;40.22;10.50;;;4.90;99.90;;;;;;5014167;28;20069;-75
2023/01/26 09:21:05;;;;;;;47.20;11.38;;;5.40;99.90;;;;;;5015119;28;20056;-75
2023/01/26 09:23:34;;;;;;;35.20;11.35;;;5.00;99.90;;;;;;5015225;28;20054;-77
2023/01/26 09:26:02;;;;;;;31.48;11.00;;;5.80;99.90;;;;;;5013856;28;20473;-76
2023/01/26 09:28:30;;;;;;;;;;;5.20;99.90;;;;;;5015442;28;20037;-75
2023/01/26 09:31:05;;;;;;;35.65;10.05;;;5.10;99.90;;;;;;5013917;28;19928;-76
2023/01/26 09:33:33;;;;;;;34.42;10.57;;;5.20;99.90;;;;;;4998389;28;20065;-76
2023/01/26 09:36:09;;;;;;;40.75;11.05;;;5.10;99.90;;;;;;5015096;28;20041;-75
2023/01/26 09:38:37;;;;;;;38.95;11.30;;;5.10;99.90;;;;;;4980683;28;20492;-77
2023/01/26 09:41:32;;;;;;;38.83;11.68;;;6.00;99.90;;;;;;5014899;28;20069;-75
2023/01/26 09:44:07;;;;;;;43.95;11.52;;;5.10;99.90;;;;;;4997551;28;20361;-75
2023/01/26 09:46:43;;;;;;;39.15;11.82;;;5.10;99.90;;;;;;4996580;28;20049;-77
2023/01/26 09:49:25;;;;;;;35.55;11.48;;;5.20;99.90;;;;;;4981977;28;20045;-74
2023/01/26 09:52:13;;;;;;;35.83;10.73;;;5.20;99.90;;;;;;4996578;28;20165;-78
2023/01/26 09:54:55;;;;;;;33.08;11.27;;;5.20;99.90;;;;;;5014927;28;20357;-76
2023/01/26 09:57:29;;;;;;;32.45;11.60;;;5.20;99.90;;;;;;4997948;28;20061;-76
2023/01/26 10:00:08;;;;;;;38.50;12.10;;;5.20;99.90;;;;;;5013776;28;20491;-77
2023/01/26 10:03:16;;;;;;;38.30;12.23;;;7.10;99.90;;;;;;5014740;28;20349;-77
2023/01/26 10:05:59;;;;;;;44.35;12.52;;;5.30;99.90;;;;;;5002652;28;20377;-77
2023/01/26 10:08:46;;;;;;;31.23;12.32;;;5.30;99.90;;;;;;5014548;28;20337;-74
2023/01/26 10:11:26;;;;;;;37.80;12.48;;;5.30;99.90;;;;;;5013618;28;20400;-77
2023/01/26 10:14:03;;;;;;;43.80;13.10;;;5.30;99.90;;;;;;4997616;28;20046;-74
2023/01/26 10:16:33;;;;;;;46.85;14.00;;;6.70;99.90;;;;;;5014691;28;20057;-76
2023/01/26 10:19:41;;;;;;;41.92;14.32;;;5.30;99.90;;;;;;5013432;28;20045;-76
2023/01/26 10:22:26;;;;;;;37.80;13.68;;;5.40;99.90;;;;;;5000031;28;20069;-77
2023/01/26 10:24:55;;;;;;;37.67;14.07;;;5.50;99.90;;;;;;5016194;28;20046;-78
2023/01/26 10:27:23;;;;;;;39.80;13.20;;;5.60;99.90;;;;;;5000914;28;20065;-74
2023/01/26 10:29:50;;;;;;;37.05;13.05;;;5.50;99.90;;;;;;5000991;28;20045;-78
2023/01/26 10:32:18;;;;;;;36.78;14.20;;;6.60;99.90;;;;;;5017187;28;20058;-77
2023/01/26 10:34:48;;;;;;;42.92;13.07;;;5.80;99.90;;;;;;5000667;28;20485;-75
2023/01/26 10:37:21;;;;;;;33.05;13.15;;;5.50;99.90;;;;;;5017785;28;20465;-74
2023/01/26 10:40:01;;;;;;;31.13;12.32;;;5.60;99.90;;;;;;5016961;28;20056;-75
2023/01/26 10:42:35;;;;;;;43.20;13.07;;;5.70;99.90;;;;;;5018107;28;20046;-76
2023/01/26 10:45:24;;;;;;;29.60;12.43;;;5.50;99.90;;;;;;5017122;28;20046;-75
2023/01/26 10:48:15;;;;;;;38.80;11.65;;;6.90;99.90;;;;;;5011477;28;20053;-76
2023/01/26 10:50:43;;;;;;;41.92;13.18;;;5.70;99.90;;;;;;5017589;28;20046;-77
2023/01/26 10:53:18;;;;;;;38.60;14.15;;;5.30;99.90;;;;;;5016481;28;20046;-77
2023/01/26 10:56:02;;;;;;;44.53;14.38;;;5.80;99.90;;;;;;5017865;28;20049;-76
2023/01/26 10:58:58;;;;;;;40.30;14.50;;;5.70;99.90;;;;;;5016555;28;20049;-77
2023/01/26 11:01:28;;;;;;;41.30;13.50;;;5.70;99.90;;;;;;5017812;28;20038;-76
2023/01/26 11:04:06;;;;;;;30.85;12.90;;;5.90;99.90;;;;;;5017593;28;20122;-75
2023/01/26 11:06:34;;;;;;;44.58;15.23;;;5.70;99.90;;;;;;4999197;28;20050;-76
2023/01/26 11:09:13;;;;;;;44.95;13.93;;;5.60;99.90;;;;;;5017488;28;20046;-74
2023/01/26 11:11:41;;;;;;;45.42;12.90;;;7.40;99.90;;;;;;4999068;28;20053;-78
2023/01/26 11:14:15;;;;;;;45.33;14.05;;;6.90;99.90;;;;;;5017109;28;20046;-74
2023/01/26 11:16:49;;;;;;;43.00;13.25;;;5.70;99.90;;;;;;5017267;28;20050;-76
2023/01/26 11:19:25;;;;;;;38.50;10.68;;;5.70;99.90;;;;;;5015968;28;20045;-76
2023/01/26 11:21:58;;;;;;;45.13;11.80;;;5.70;99.90;;;;;;5000024;28;20053;-77
2023/01/26 11:24:30;;;;;;;38.58;11.50;;;7.00;99.90;;;;;;5016199;28;20087;-75
2023/01/26 11:27:28;;;;;;;33.13;10.63;;;5.70;99.90;;;;;;5017070;28;20046;-76
2023/01/26 11:30:31;;;;;;;38.15;10.32;;;5.70;99.90;;;;;;5016681;28;20049;-76
2023/01/26 11:33:22;;;;;;;35.40;9.55;;;5.80;99.90;;;;;;5015755;28;20038;-76
2023/01/26 11:36:16;;;;;;;44.03;9.65;;;5.80;99.90;;;;;;5016168;28;20042;-76
2023/01/26 11:39:09;;;;;;;32.88;8.38;;;5.60;99.90;;;;;;4986575;28;20057;-75
2023/01/26 11:42:12;;;;;;;36.15;8.50;;;5.80;99.90;;;;;;4964486;28;20061;-76
2023/01/26 11:44:54;;;;;;;29.85;7.65;;;5.80;99.90;;;;;;5012416;28;20041;-74
2023/01/26 11:47:40;;;;;;;33.83;7.97;;;5.90;99.90;;;;;;5016820;28;20369;-77
2023/01/26 11:50:41;;;;;;;41.38;8.82;;;5.90;99.90;;;;;;5016674;28;20469;-75
2023/01/26 11:53:41;;;;;;;30.48;8.60;;;5.90;99.90;;;;;;5015266;28;20065;-74
2023/01/26 11:56:30;;;;;;;36.53;8.48;;;6.00;99.90;;;;;;4999821;28;20046;-77
2023/01/26 11:59:05;;;;;;;34.08;8.60;;;6.10;99.90;;;;;;5015371;28;20049;-74
2023/01/26 12:01:38;;;;;;;32.45;7.75;;;6.10;99.90;;;;;;5016104;28;20041;-75
2023/01/26 12:04:17;;;;;;;30.45;7.95;;;6.30;99.90;;;;;;5016607;28;20046;-76
2023/01/26 12:06:52;;;;;;;36.17;7.80;;;6.90;99.90;;;;;;5016364;28;20126;-75
2023/01/26 12:09:35;;;;;;;34.88;7.47;;;6.40;99.90;;;;;;5016160;28;20058;-77
2023/01/26 12:12:30;;;;;;;39.53;7.30;;;6.50;99.90;;;;;;5014948;28;20038;-77
2023/01/26 12:15:36;;;;;;;32.22;6.97;;;6.60;99.90;;;;;;5016079;28;20052;-74
2023/01/26 12:18:08;;;;;;;32.53;6.63;;;7.70;99.90;;;;;;5014674;28;20045;-75
2023/01/26 12:20:44;;;;;;;28.88;6.28;;;7.70;99.90;;;;;;4999218;28;20468;-74
2023/01/26 12:23:48;;;;;;;34.00;6.15;;;6.70;99.90;;;;;;4982784;28;20049;-77
2023/01/26 12:26:18;;;;;;;33.88;6.20;;;6.70;99.90;;;;;;4971843;28;20050;-75
2023/01/26 12:29:06;;;;;;;40.67;6.57;;;6.60;99.90;;;;;;5016386;28;20049;-76
2023/01/26 12:32:02;;;;;;;37.10;5.90;;;6.70;99.90;;;;;;5014677;28;20409;-76
2023/01/26 12:34:32;;;;;;;30.38;6.45;;;6.80;99.90;;;;;;5015935;28;20045;-73
2023/01/26 12:37:22;;;;;;;33.70;6.10;;;7.10;99.90;;;;;;5015739;28;20046;-75
2023/01/26 12:39:59;;;;;;;34.50;5.80;;;6.80;99.90;;;;;;4997581;28;20054;-77
2023/01/26 12:42:56;;;;;;;33.58;5.53;;;6.80;99.90;;;;;;5015747;28;20056;-77
2023/01/26 12:45:31;;;;;;;30.58;5.18;;;6.90;99.90;;;;;;5014417;28;20053;-76
2023/01/26 12:48:06;;;;;;;29.02;5.40;;;6.90;99.90;;;;;;4998638;28;20055;-73
2023/01/26 12:50:46;;;;;;;35.10;5.03;;;7.10;99.90;;;;;;5015791;28;20053;-74
2023/01/26 12:53:48;;;;;;;29.35;4.38;;;7.00;99.90;;;;;;5014274;28;20057;-76
2023/01/26 12:56:29;;;;;;;33.38;4.43;;;7.00;99.90;;;;;;4998445;28;20046;-73
2023/01/26 12:58:58;;;;;;;27.40;4.10;;;7.60;99.90;;;;;;5014419;28;20046;-75
2023/01/26 13:01:37;;;;;;;31.27;4.28;;;8.00;99.90;;;;;;5014930;28;20050;-74
2023/01/26 13:04:11;;;;;;;30.15;4.22;;;7.30;99.90;;;;;;4998577;28;20046;-75
2023/01/26 13:06:38;;;;;;;28.00;3.90;;;7.20;99.90;;;;;;5014948;28;20052;-76
2023/01/26 13:09:26;;;;;;;32.60;4.43;;;7.10;99.90;;;;;;5015147;28;20054;-75
2023/01/26 13:11:55;;;;;;;26.98;3.92;;;7.40;99.90;;;;;;5014099;28;20369;-75
2023/01/26 13:14:35;;;;;;;32.15;3.38;;;7.20;99.90;;;;;;5014969;28;20042;-75
2023/01/26 13:17:15;;;;;;;26.85;3.42;;;7.20;99.90;;;;;;5015468;28;20045;-74
2023/01/26 13:19:42;;;;;;;30.00;4.88;;;7.30;99.90;;;;;;5013888;28;20046;-75
2023/01/26 13:22:22;;;;;;;25.48;3.42;;;7.30;99.90;;;;;;4997700;28;20060;-76
2023/01/26 13:24:55;;;;;;;33.30;3.95;;;7.90;99.90;;;;;;5013952;28;20053;-75
2023/01/26 13:27:59;;;;;;;35.65;4.40;;;7.60;99.90;;;;;;5015508;28;20361;-74
2023/01/26 13:30:43;;;;;;;26.20;4.30;;;7.60;99.90;;;;;;5002405;28;20042;-74
2023/01/26 13:33:23;;;;;;;29.42;4.43;;;7.60;99.90;;;;;;5013678;28;20053;-76
2023/01/26 13:35:53;;;;;;;28.77;3.92;;;7.60;99.90;;;;;;5014972;28;20046;-76
2023/01/26 13:38:26;;;;;;;28.52;4.18;;;7.70;99.90;;;;;;5014060;28;20053;-75
2023/01/26 13:40:55;;;;;;;35.10;4.10;;;7.70;99.90;;;;;;5015015;28;20500;-74
2023/01/26 13:43:31;;;;;;;32.92;4.40;;;8.70;99.90;;;;;;5014906;28;20484;-78
2023/01/26 13:46:13;;;;;;;24.30;4.13;;;7.70;99.90;;;;;;5013905;28;20042;-73
2023/01/26 13:48:52;;;;;;;27.67;4.10;;;7.70;99.90;;;;;;4997734;28;20469;-75
2023/01/26 13:51:36;;;;;;;32.75;4.20;;;7.60;99.90;;;;;;5013644;28;20038;-74
2023/01/26 13:54:14;;;;;;;33.58;4.10;;;7.70;99.90;;;;;;4997516;28;20050;-76
2023/01/26 13:56:42;;;;;;;;;;;7.70;99.90;;;;;;5015623;28;20046;-76
2023/01/26 13:59:11;;;;;;;31.40;5.22;;;7.60;99.90;;;;;;5015448;28;19936;-78
2023/01/26 14:01:51;;;;;;;30.15;4.45;;;7.80;99.90;;;;;;5018308;28;20377;-77
2023/01/26 14:04:24;;;;;;;35.50;4.80;;;8.10;99.90;;;;;;5017419;28;20046;-78
2023/01/26 14:07:04;;;;;;;28.77;4.18;;;7.60;99.90;;;;;;5018604;28;20377;-75
2023/01/26 14:09:47;;;;;;;30.73;4.32;;;8.20;99.90;;;;;;5018775;28;20050;-74
2023/01/26 14:12:28;;;;;;;26.25;3.95;;;8.10;99.90;;;;;;5017352;28;20042;-77